createdAt,value
2019-05-15T04:00:40.585Z,1068.00
2019-05-15T04:02:40.572Z,1164.00
2019-05-15T04:04:40.539Z,1268.00
2019-05-15T04:06:40.536Z,1376.00
2019-05-15T04:08:40.507Z,1484.00
2019-05-15T04:10:40.477Z,1596.00
2019-05-15T04:12:40.924Z,1708.00
2019-05-15T04:14:40.450Z,1824.00
2019-05-15T04:16:40.415Z,1940.00
2019-05-15T04:18:40.394Z,2064.00
2019-05-15T04:20:41.066Z,2196.00
2019-05-15T04:22:40.706Z,3432.00
2019-05-15T04:24:40.335Z,3288.00
2019-05-15T04:26:40.311Z,3692.00
2019-05-15T04:28:41.657Z,16064.00
2019-05-15T04:30:40.288Z,19456.00
2019-05-15T04:32:40.567Z,29696.00
2019-05-15T04:34:40.219Z,33280.00
2019-05-15T04:36:44.209Z,35264.00
2019-05-15T04:38:40.176Z,37120.00
2019-05-15T04:40:40.248Z,36800.00
2019-05-15T04:42:40.250Z,37056.00
2019-05-15T04:44:40.131Z,41184.00
2019-05-15T04:46:40.097Z,43616.00
2019-05-15T04:48:40.367Z,44064.00
2019-05-15T04:50:40.471Z,44864.00
2019-05-15T04:52:43.266Z,33600.00
2019-05-15T04:54:40.439Z,11744.00
2019-05-15T04:56:40.319Z,38784.00
2019-05-15T04:58:40.022Z,5764.00
2019-05-15T05:00:40.192Z,10800.00
2019-05-15T05:02:40.731Z,13620.00
2019-05-15T05:04:39.902Z,45472.00
2019-05-15T05:06:39.901Z,55680.00
2019-05-15T05:08:40.250Z,57248.00
2019-05-15T05:10:39.840Z,57728.00
2019-05-15T05:12:41.510Z,59968.00
2019-05-15T05:14:39.814Z,60992.00
2019-05-15T05:16:39.772Z,59872.00
2019-05-15T05:18:41.387Z,61376.00
2019-05-15T05:20:39.779Z,61248.00
2019-05-15T05:22:39.799Z,55520.00
2019-05-15T05:24:39.716Z,55808.00
2019-05-15T05:26:39.656Z,59584.00
2019-05-15T05:28:39.631Z,62528.00
2019-05-15T05:30:39.650Z,64896.00
2019-05-15T05:32:39.642Z,62944.00
2019-05-15T05:34:39.570Z,66688.00
2019-05-15T05:36:39.602Z,63520.00
2019-05-15T05:38:39.546Z,61952.00
2019-05-15T05:40:39.505Z,62048.00
2019-05-15T05:42:39.516Z,59680.00
2019-05-15T05:44:42.657Z,58496.00
2019-05-15T05:46:39.845Z,60640.00
2019-05-15T05:48:39.419Z,60832.00
2019-05-15T05:50:39.461Z,60448.00
2019-05-15T05:52:39.446Z,60608.00
2019-05-15T05:54:39.368Z,60384.00
2019-05-15T05:56:39.345Z,63744.00
2019-05-15T05:58:39.384Z,62176.00
2019-05-15T06:00:39.451Z,60448.00
2019-05-15T06:02:46.861Z,59104.00
2019-05-15T06:04:40.336Z,55808.00
2019-05-15T06:06:39.234Z,59072.00
2019-05-15T06:08:39.220Z,60096.00
2019-05-15T06:10:39.193Z,58240.00
2019-05-15T06:12:39.267Z,56576.00
2019-05-15T06:14:39.156Z,55136.00
2019-05-15T06:16:39.149Z,50336.00
2019-05-15T06:18:39.157Z,55680.00
2019-05-15T06:20:39.598Z,56128.00
2019-05-15T06:22:39.087Z,55488.00
2019-05-15T06:24:39.095Z,54880.00
2019-05-15T06:26:39.025Z,55840.00
2019-05-15T06:28:39.483Z,54496.00
2019-05-15T06:30:38.979Z,55456.00
2019-05-15T06:32:40.130Z,53792.00
2019-05-15T06:34:39.012Z,54176.00
2019-05-15T06:36:39.427Z,54176.00
2019-05-15T06:38:39.460Z,54112.00
2019-05-15T06:40:39.535Z,54432.00
2019-05-15T06:42:39.645Z,53344.00
2019-05-15T06:44:38.991Z,54656.00
2019-05-15T06:46:39.302Z,54752.00
2019-05-15T06:48:38.816Z,52960.00
2019-05-15T06:50:38.764Z,52320.00
2019-05-15T06:52:38.743Z,50464.00
2019-05-15T06:54:38.763Z,50272.00
2019-05-15T06:56:39.063Z,46592.00
2019-05-15T06:58:38.838Z,47072.00
2019-05-15T07:00:39.252Z,44096.00
2019-05-15T07:02:38.666Z,43776.00
2019-05-15T07:04:38.643Z,44128.00
2019-05-15T07:06:38.595Z,39360.00
2019-05-15T07:08:38.596Z,40608.00
2019-05-15T07:10:38.543Z,36576.00
2019-05-15T07:12:39.339Z,16320.00
2019-05-15T07:14:38.528Z,13788.00
2019-05-15T07:16:39.115Z,14996.00
2019-05-15T07:18:39.266Z,17728.00
2019-05-15T07:20:39.074Z,19200.00
2019-05-15T07:22:39.141Z,31872.00
2019-05-15T07:24:38.451Z,24352.00
2019-05-15T07:26:48.206Z,22432.00
2019-05-15T07:28:38.357Z,16224.00
2019-05-15T07:30:41.166Z,15584.00
2019-05-15T07:32:39.622Z,15552.00
2019-05-15T07:34:38.295Z,13892.00
2019-05-15T07:36:39.120Z,12832.00
2019-05-15T07:38:39.166Z,13708.00
2019-05-15T07:40:39.522Z,12316.00
2019-05-15T07:42:38.781Z,12228.00
2019-05-15T07:44:38.817Z,11668.00
2019-05-15T07:46:38.396Z,11740.00
2019-05-15T07:48:38.586Z,11468.00
2019-05-15T07:50:38.917Z,11656.00
2019-05-15T07:52:39.492Z,11636.00
2019-05-15T07:54:38.398Z,10896.00
2019-05-15T07:56:38.213Z,10920.00
2019-05-15T07:58:38.597Z,10796.00
2019-05-15T08:00:39.488Z,10740.00
2019-05-15T08:02:38.431Z,10648.00
2019-05-15T08:04:38.182Z,10092.00
2019-05-15T08:06:38.883Z,10052.00
2019-05-15T08:08:39.269Z,10108.00
2019-05-15T08:10:39.684Z,10356.00
2019-05-15T08:12:39.185Z,10720.00
2019-05-15T08:14:38.832Z,11368.00
2019-05-15T08:16:39.598Z,11904.00
2019-05-15T08:18:39.345Z,12764.00
2019-05-15T08:20:38.529Z,9968.00
2019-05-15T08:22:38.427Z,7880.00
2019-05-15T08:24:39.177Z,7376.00
2019-05-15T08:26:38.328Z,7168.00
2019-05-15T08:28:38.216Z,7100.00
2019-05-15T08:30:38.765Z,7000.00
2019-05-15T08:32:38.904Z,6948.00
2019-05-15T08:34:38.686Z,6888.00
2019-05-15T08:36:38.577Z,6836.00
2019-05-15T08:38:38.384Z,6784.00
2019-05-15T08:40:41.046Z,6784.00
2019-05-15T08:42:41.584Z,6760.00
2019-05-15T08:44:38.725Z,6744.00
2019-05-15T08:46:38.713Z,6708.00
2019-05-15T08:48:38.346Z,6692.00
2019-05-15T08:50:39.002Z,6656.00
2019-05-15T08:52:39.334Z,6624.00
2019-05-15T08:54:38.274Z,6556.00
2019-05-15T08:56:39.399Z,6484.00
2019-05-15T08:58:38.183Z,6396.00
2019-05-15T09:00:39.789Z,6324.00
2019-05-15T09:02:38.298Z,6168.00
2019-05-15T09:04:38.712Z,5852.00
2019-05-15T09:06:41.357Z,6036.00
2019-05-15T09:08:44.792Z,5984.00
2019-05-15T09:10:38.468Z,5952.00
2019-05-15T09:12:38.873Z,5696.00
2019-05-15T09:14:38.035Z,5896.00
2019-05-15T09:16:38.736Z,5576.00
2019-05-15T09:18:39.109Z,5776.00
2019-05-15T09:20:38.348Z,5708.00
2019-05-15T09:22:38.198Z,5580.00
2019-05-15T09:24:37.898Z,5608.00
2019-05-15T09:26:40.085Z,5580.00
2019-05-15T09:28:39.171Z,5740.00
2019-05-15T09:30:39.105Z,5660.00
2019-05-15T09:32:39.299Z,5956.00
2019-05-15T09:34:49.938Z,5552.00
2019-05-15T09:36:42.204Z,5624.00
2019-05-15T09:38:39.024Z,6032.00
2019-05-15T09:40:45.150Z,6176.00
2019-05-15T09:42:38.906Z,6128.00
2019-05-15T09:44:39.029Z,6260.00
2019-05-15T09:46:38.296Z,6272.00
2019-05-15T09:48:39.063Z,5536.00
2019-05-15T09:50:39.702Z,6364.00
2019-05-15T09:52:38.764Z,6292.00
2019-05-15T09:54:38.751Z,6196.00
2019-05-15T09:56:38.476Z,6100.00
2019-05-15T09:58:38.110Z,6116.00
2019-05-15T10:00:38.549Z,6136.00
2019-05-15T10:02:39.329Z,6124.00
2019-05-15T10:04:38.858Z,6140.00
2019-05-15T10:06:38.925Z,6160.00
2019-05-15T10:08:39.483Z,6200.00
2019-05-15T10:10:38.018Z,5652.00
2019-05-15T10:12:38.692Z,6292.00
2019-05-15T10:14:38.645Z,6260.00
2019-05-15T10:16:36.542Z,6288.00
2019-05-15T10:18:38.645Z,6296.00
2019-05-15T10:20:36.499Z,6308.00
2019-05-15T10:22:36.449Z,6356.00
2019-05-15T10:24:36.432Z,6348.00
2019-05-15T10:26:36.412Z,6388.00
2019-05-15T10:28:38.994Z,6432.00
2019-05-15T10:30:39.231Z,6452.00
2019-05-15T10:32:39.212Z,6472.00
2019-05-15T10:34:38.347Z,6516.00
2019-05-15T10:36:38.528Z,6732.00
2019-05-15T10:38:38.953Z,6872.00
2019-05-15T10:40:36.258Z,6944.00
2019-05-15T10:42:36.228Z,7116.00
2019-05-15T10:44:36.227Z,7456.00
2019-05-15T10:46:38.152Z,6644.00
2019-05-15T10:48:38.540Z,6680.00
2019-05-15T10:50:38.599Z,6688.00
2019-05-15T10:52:38.217Z,6720.00
2019-05-15T10:54:38.134Z,6540.00
2019-05-15T10:56:38.378Z,6400.00
2019-05-15T10:58:36.080Z,6252.00
2019-05-15T11:00:36.057Z,5904.00
2019-05-15T11:02:36.015Z,5764.00
2019-05-15T11:04:35.993Z,5676.00
2019-05-15T11:06:38.196Z,5512.00
2019-05-15T11:08:35.966Z,5412.00
2019-05-15T11:10:38.564Z,5360.00
2019-05-15T11:12:36.915Z,5272.00
2019-05-15T11:14:37.960Z,5160.00
2019-05-15T11:16:35.873Z,5144.00
2019-05-15T11:18:36.020Z,5120.00
2019-05-15T11:20:35.851Z,5112.00
2019-05-15T11:22:42.258Z,5120.00
2019-05-15T11:24:38.512Z,5080.00
2019-05-15T11:26:35.750Z,5096.00
2019-05-15T11:28:38.746Z,5080.00
2019-05-15T11:30:35.716Z,5084.00
2019-05-15T11:32:35.715Z,5052.00
2019-05-15T11:34:38.142Z,5044.00
2019-05-15T11:36:38.495Z,5020.00
2019-05-15T11:38:37.963Z,5000.00
2019-05-15T11:40:35.606Z,4992.00
2019-05-15T11:42:35.588Z,4976.00
2019-05-15T11:44:35.555Z,4952.00
2019-05-15T11:46:35.557Z,4952.00
2019-05-15T11:48:35.512Z,4920.00
2019-05-15T11:50:35.501Z,4908.00
2019-05-15T11:52:37.353Z,4908.00
2019-05-15T11:54:35.444Z,4888.00
2019-05-15T11:56:35.451Z,4900.00
2019-05-15T11:58:35.410Z,4860.00
2019-05-15T12:00:35.383Z,4872.00
2019-05-15T12:02:38.160Z,4856.00
2019-05-15T12:04:35.356Z,4852.00
2019-05-15T12:06:35.319Z,4852.00
2019-05-15T12:08:35.310Z,4836.00
2019-05-15T12:10:35.294Z,4836.00
2019-05-15T12:12:35.253Z,4828.00
2019-05-15T12:14:35.253Z,4812.00
2019-05-15T12:16:36.391Z,4804.00
2019-05-15T12:18:35.183Z,4800.00
2019-05-15T12:20:35.171Z,4772.00
2019-05-15T12:22:35.148Z,4792.00
2019-05-15T12:24:37.164Z,4764.00
2019-05-15T12:26:39.235Z,4752.00
2019-05-15T12:28:35.083Z,4720.00
2019-05-15T12:30:35.067Z,4720.00
2019-05-15T12:32:36.702Z,4712.00
2019-05-15T12:34:35.011Z,4688.00
2019-05-15T12:36:50.746Z,4672.00
2019-05-15T12:38:35.984Z,4660.00
2019-05-15T13:00:35.740Z,4520.00
2019-05-15T13:02:34.702Z,4532.00
2019-05-15T13:04:34.715Z,4504.00
2019-05-15T13:06:47.396Z,4508.00
2019-05-15T13:08:38.309Z,4552.00
2019-05-15T13:10:34.649Z,4508.00
2019-05-15T13:12:34.656Z,4500.00
2019-05-15T13:14:34.576Z,4476.00
2019-05-15T13:16:34.562Z,4500.00
2019-05-15T13:18:34.541Z,4480.00
2019-05-15T13:20:34.514Z,4448.00
2019-05-15T13:22:36.415Z,4472.00
2019-05-15T13:24:34.495Z,4484.00
2019-05-15T13:26:34.465Z,4468.00
2019-05-15T13:28:34.424Z,4456.00
2019-05-15T13:30:37.680Z,4444.00
2019-05-15T13:32:35.395Z,4456.00
2019-05-15T13:34:34.359Z,4468.00
2019-05-15T13:36:34.353Z,4460.00
2019-05-15T13:38:34.306Z,4444.00
2019-05-15T13:40:38.087Z,4428.00
2019-05-15T13:42:35.257Z,4440.00
2019-05-15T13:44:34.299Z,4424.00
2019-05-15T13:46:34.233Z,4428.00
2019-05-15T13:48:34.192Z,4420.00
2019-05-15T13:50:34.200Z,4412.00
2019-05-15T13:52:34.168Z,4416.00
2019-05-15T13:54:34.132Z,4372.00
2019-05-15T13:56:34.129Z,4400.00
2019-05-15T13:58:34.094Z,4392.00
2019-05-15T14:00:34.059Z,4396.00
2019-05-15T14:02:34.061Z,4380.00
2019-05-15T14:04:34.032Z,4396.00
2019-05-15T14:06:34.006Z,4376.00
2019-05-15T14:08:33.991Z,4372.00
2019-05-15T14:10:33.976Z,4340.00
2019-05-15T14:12:33.943Z,4336.00
2019-05-15T14:14:33.941Z,4340.00
2019-05-15T14:16:33.940Z,4324.00
2019-05-15T14:18:33.870Z,4336.00
2019-05-15T14:20:33.853Z,4316.00
2019-05-15T14:22:33.848Z,4324.00
2019-05-15T14:24:33.801Z,4328.00
2019-05-15T14:26:33.790Z,4324.00
2019-05-15T14:28:33.780Z,4296.00
2019-05-15T14:30:33.731Z,4312.00
2019-05-15T14:32:38.691Z,4304.00
2019-05-15T14:34:34.750Z,4300.00
2019-05-15T14:36:33.668Z,4296.00
2019-05-15T14:38:33.708Z,4288.00
2019-05-15T14:40:33.639Z,4288.00
2019-05-15T14:42:33.600Z,4260.00
2019-05-15T14:44:33.667Z,4272.00
2019-05-15T14:46:33.613Z,4256.00
2019-05-15T14:48:33.530Z,4256.00
2019-05-15T14:50:33.528Z,4264.00
2019-05-15T14:52:33.499Z,4272.00
2019-05-15T14:54:33.471Z,4240.00
2019-05-15T14:56:33.464Z,4240.00
2019-05-15T14:58:33.438Z,4244.00
2019-05-15T15:00:35.050Z,4228.00
2019-05-15T15:02:33.427Z,4208.00
2019-05-15T15:04:33.357Z,4216.00
2019-05-15T15:06:33.344Z,4192.00
2019-05-15T15:08:33.412Z,4208.00
2019-05-15T15:10:33.295Z,4224.00
2019-05-15T15:12:33.280Z,4200.00
2019-05-15T15:14:33.291Z,4180.00
2019-05-15T15:16:33.228Z,4248.00
2019-05-15T15:18:33.209Z,4160.00
2019-05-15T15:20:33.209Z,4152.00
2019-05-15T15:22:33.220Z,4140.00
2019-05-15T15:24:33.137Z,4124.00
2019-05-15T15:26:33.149Z,4124.00
2019-05-15T15:28:33.155Z,4100.00
2019-05-15T15:30:33.094Z,4088.00
2019-05-15T15:32:33.085Z,4120.00
2019-05-15T15:34:33.061Z,4076.00
2019-05-15T15:36:33.022Z,4116.00
2019-05-15T15:38:40.216Z,4028.00
2019-05-15T15:40:33.977Z,4016.00
2019-05-15T15:42:32.951Z,4008.00
2019-05-15T15:44:32.964Z,3988.00
2019-05-15T15:46:32.937Z,3976.00
2019-05-15T15:48:32.883Z,3952.00
2019-05-15T15:50:32.902Z,3920.00
2019-05-15T15:52:32.869Z,3904.00
2019-05-15T15:54:32.820Z,3880.00
2019-05-15T15:56:32.790Z,3880.00
2019-05-15T15:58:32.868Z,3816.00
2019-05-15T16:00:32.743Z,3824.00
2019-05-15T16:02:32.744Z,3788.00
2019-05-15T16:04:32.745Z,3820.00
2019-05-15T16:06:32.680Z,3804.00
2019-05-15T16:08:32.665Z,3776.00
2019-05-15T16:10:32.689Z,3748.00
2019-05-15T16:12:32.647Z,3728.00
2019-05-15T16:14:32.604Z,3704.00
2019-05-15T16:16:32.591Z,3672.00
2019-05-15T16:18:32.562Z,3688.00
2019-05-15T16:20:32.589Z,3640.00
2019-05-15T16:22:32.502Z,3604.00
2019-05-15T16:24:32.510Z,3540.00
2019-05-15T16:26:32.468Z,3568.00
2019-05-15T16:28:32.430Z,3544.00
2019-05-15T16:30:32.450Z,3516.00
2019-05-15T16:32:32.410Z,3492.00
2019-05-15T16:34:32.366Z,3452.00
2019-05-15T16:36:32.362Z,3424.00
2019-05-15T16:38:32.336Z,3384.00
2019-05-15T16:40:32.352Z,3332.00
2019-05-15T16:42:32.305Z,3292.00
2019-05-15T16:44:32.302Z,3260.00
2019-05-15T16:46:32.238Z,3176.00
2019-05-15T16:48:32.233Z,3184.00
2019-05-15T16:50:32.226Z,3148.00
2019-05-15T16:52:32.212Z,3112.00
2019-05-15T16:54:32.154Z,3100.00
2019-05-15T16:56:32.143Z,3044.00
2019-05-15T16:58:32.127Z,3024.00
2019-05-15T17:00:32.123Z,2984.00
2019-05-15T17:02:32.354Z,2972.00
2019-05-15T17:04:32.086Z,2944.00
2019-05-15T17:06:32.057Z,2872.00
2019-05-15T17:08:32.395Z,2864.00
2019-05-15T17:10:32.008Z,2812.00
2019-05-15T17:12:31.986Z,2772.00
2019-05-15T17:14:31.954Z,2724.00
2019-05-15T17:16:31.952Z,2672.00
2019-05-15T17:18:31.895Z,2604.00
2019-05-15T17:20:31.883Z,2532.00
2019-05-15T17:22:31.894Z,2456.00
2019-05-15T17:24:31.877Z,2368.00
2019-05-15T17:26:31.811Z,2292.00
2019-05-15T17:28:31.811Z,2228.00
2019-05-15T17:30:31.783Z,2184.00
2019-05-15T17:32:31.746Z,2148.00
2019-05-15T17:34:31.779Z,2112.00
2019-05-15T17:36:32.080Z,2084.00
2019-05-15T17:38:31.678Z,2060.00
2019-05-15T17:40:31.693Z,2020.00
2019-05-15T17:42:31.644Z,1996.00
2019-05-15T17:44:31.631Z,1960.00
2019-05-15T17:46:31.597Z,1932.00
2019-05-15T17:48:31.578Z,1912.00
2019-05-15T17:50:45.043Z,1880.00
2019-05-15T17:52:32.575Z,1860.00
2019-05-15T17:54:31.517Z,1832.00
2019-05-15T17:56:31.481Z,1800.00
2019-05-15T17:58:31.535Z,1776.00
2019-05-15T18:00:31.458Z,1748.00
2019-05-15T18:02:31.428Z,1716.00
2019-05-15T18:04:31.412Z,1684.00
2019-05-15T18:06:31.448Z,1652.00
2019-05-15T18:08:31.355Z,1620.00
2019-05-15T18:10:31.379Z,1588.00
2019-05-15T18:12:31.323Z,1544.00
2019-05-15T18:14:31.318Z,1508.00
2019-05-15T18:16:31.285Z,1476.00
2019-05-15T18:18:31.246Z,1432.00
2019-05-15T18:20:31.241Z,1388.00
2019-05-15T18:22:31.211Z,1348.00
2019-05-15T18:24:31.177Z,1304.00
2019-05-15T18:26:31.174Z,1264.00
2019-05-15T18:28:31.152Z,1212.00
2019-05-15T18:30:31.114Z,1168.00
2019-05-15T18:32:31.109Z,1124.00
2019-05-15T18:34:31.091Z,1072.00
2019-05-15T18:36:31.047Z,1024.00
2019-05-15T18:38:31.032Z,980.00
2019-05-15T18:40:31.030Z,928.00
2019-05-15T18:42:31.007Z,880.00
2019-05-15T18:44:30.983Z,824.00
2019-05-15T18:46:30.971Z,772.00
2019-05-15T18:48:30.948Z,724.00
2019-05-15T18:50:30.902Z,664.00
2019-05-15T18:52:30.926Z,612.00
2019-05-15T18:54:30.923Z,552.00
2019-05-15T18:56:30.846Z,500.00
2019-05-15T18:58:30.829Z,444.00
2019-05-15T19:00:30.821Z,392.00
2019-05-15T19:02:30.780Z,344.00
2019-05-15T19:04:30.761Z,300.00
2019-05-15T19:06:30.737Z,260.00
2019-05-15T19:08:30.714Z,228.00
2019-05-15T19:10:30.744Z,196.00
2019-05-15T19:12:30.698Z,172.00
2019-05-15T19:14:30.813Z,148.00
2019-05-15T19:16:31.784Z,124.00
2019-05-15T19:18:30.710Z,108.00
2019-05-15T19:20:31.850Z,88.00
2019-05-15T19:22:30.612Z,72.00
2019-05-15T19:24:30.686Z,60.00
2019-05-15T19:26:30.542Z,44.00
2019-05-15T19:28:30.492Z,36.00
2019-05-15T19:30:30.497Z,28.00
2019-05-15T19:32:30.443Z,20.00
2019-05-15T19:34:30.437Z,16.00
2019-05-15T19:36:30.434Z,16.00
2019-05-15T19:38:30.591Z,8.00
2019-05-15T19:40:30.358Z,8.00
2019-05-15T19:42:30.352Z,4.00
2019-05-15T19:44:30.310Z,4.00
2019-05-15T19:46:30.289Z,4.00
2019-05-15T19:48:30.275Z,4.00
2019-05-15T19:50:30.262Z,4.00
2019-05-15T19:52:30.237Z,0.00
2019-05-15T19:54:30.226Z,0.00
2019-05-15T19:56:30.192Z,0.00
2019-05-15T19:58:30.179Z,0.00
2019-05-15T20:00:30.135Z,0.00
2019-05-15T20:02:30.151Z,0.00
2019-05-15T20:04:30.133Z,0.00
2019-05-15T20:06:30.077Z,0.00
2019-05-15T20:08:30.069Z,0.00
2019-05-15T20:10:30.051Z,0.00
2019-05-15T20:12:30.004Z,0.00
2019-05-15T20:14:29.983Z,0.00
2019-05-15T20:16:29.983Z,0.00
2019-05-15T20:18:29.952Z,0.00
2019-05-15T20:20:29.939Z,0.00
2019-05-15T20:22:29.949Z,0.00
2019-05-15T20:24:29.904Z,0.00
2019-05-15T20:26:29.882Z,0.00
2019-05-15T20:28:30.957Z,0.00
2019-05-15T20:30:30.782Z,0.00
2019-05-15T20:32:30.448Z,0.00
2019-05-15T20:34:29.773Z,0.00
2019-05-15T20:36:30.063Z,0.00
2019-05-15T20:38:29.750Z,0.00
2019-05-15T20:40:29.705Z,0.00
2019-05-15T20:42:29.750Z,0.00
2019-05-15T20:44:29.674Z,0.00
2019-05-15T20:46:29.657Z,0.00
2019-05-15T20:48:29.630Z,0.00
2019-05-15T20:50:29.604Z,0.00
2019-05-15T20:52:29.592Z,0.00
2019-05-15T20:54:29.569Z,0.00
2019-05-15T20:56:29.532Z,0.00
2019-05-15T20:58:29.527Z,0.00
2019-05-15T21:00:29.511Z,0.00
2019-05-15T21:02:29.496Z,0.00
2019-05-15T21:04:29.458Z,0.00
2019-05-15T21:06:29.429Z,0.00
2019-05-15T21:08:29.403Z,0.00
2019-05-15T21:10:29.394Z,0.00
2019-05-15T21:12:29.898Z,0.00
2019-05-15T21:14:29.337Z,0.00
2019-05-15T21:16:29.348Z,0.00
2019-05-15T21:18:29.297Z,0.00
2019-05-15T21:20:29.315Z,0.00
2019-05-15T21:22:29.262Z,0.00
2019-05-15T21:24:29.259Z,0.00
2019-05-15T21:26:29.247Z,0.00
2019-05-15T21:28:30.042Z,0.00
2019-05-15T21:30:29.691Z,0.00
2019-05-15T21:32:29.155Z,0.00
2019-05-15T21:34:37.420Z,0.00
2019-05-15T21:36:31.376Z,0.00
2019-05-15T21:38:29.219Z,0.00
2019-05-15T21:40:29.154Z,0.00
2019-05-15T21:42:29.044Z,0.00
2019-05-15T21:44:29.424Z,0.00
2019-05-15T21:46:28.991Z,0.00
2019-05-15T21:48:29.016Z,0.00
2019-05-15T21:50:28.954Z,0.00
2019-05-15T21:52:29.428Z,0.00
2019-05-15T21:54:28.916Z,0.00
2019-05-15T21:56:28.901Z,0.00
2019-05-15T21:58:28.873Z,0.00
2019-05-15T22:00:29.134Z,0.00
2019-05-15T22:02:29.608Z,0.00
2019-05-15T22:04:30.518Z,0.00
2019-05-15T22:06:29.336Z,0.00
2019-05-15T22:08:28.755Z,0.00
2019-05-15T22:10:28.903Z,0.00
2019-05-15T22:12:28.721Z,0.00
2019-05-15T22:14:28.711Z,0.00
2019-05-15T22:16:28.947Z,0.00
2019-05-15T22:18:28.650Z,0.00
2019-05-15T22:20:30.567Z,0.00
2019-05-15T22:22:28.625Z,0.00
2019-05-15T22:24:28.652Z,0.00
2019-05-15T22:26:29.178Z,0.00
2019-05-15T22:28:28.525Z,0.00
2019-05-15T22:30:30.322Z,0.00
2019-05-15T22:32:35.540Z,0.00
2019-05-15T22:34:28.622Z,0.00
2019-05-15T22:36:28.448Z,0.00
2019-05-15T22:38:28.608Z,0.00
2019-05-15T22:40:29.055Z,0.00
2019-05-15T22:42:31.615Z,0.00
2019-05-15T22:44:28.354Z,0.00
2019-05-15T22:46:29.006Z,0.00
2019-05-15T22:48:28.806Z,0.00
2019-05-15T22:50:28.418Z,0.00
2019-05-15T22:52:28.276Z,0.00
2019-05-15T22:54:28.254Z,0.00
2019-05-15T22:56:29.708Z,0.00
2019-05-15T22:58:28.304Z,0.00
2019-05-15T23:00:28.999Z,0.00
2019-05-15T23:02:28.151Z,0.00
2019-05-15T23:04:28.698Z,0.00
2019-05-15T23:06:28.346Z,0.00
2019-05-15T23:08:29.034Z,0.00
2019-05-15T23:10:29.160Z,0.00
2019-05-15T23:12:28.732Z,0.00
2019-05-15T23:14:28.713Z,0.00
2019-05-15T23:16:28.432Z,0.00
2019-05-15T23:18:27.985Z,0.00
2019-05-15T23:20:28.517Z,0.00
2019-05-15T23:22:28.058Z,0.00
2019-05-15T23:24:28.236Z,0.00
2019-05-15T23:26:28.318Z,0.00
2019-05-15T23:28:28.221Z,0.00
